Terminal Aerodrome Forecast
Issued by NWS Spokane, WA

Home | Current Version | Previous Version | Text Only | Print | Product List | Glossary On
Versions: 1 2 3 4 5 6 7 8 9 10 11 12 13 14
000
FTUS46 KOTX 051139
TAFEAT
TAF
KEAT 051139Z 0512/0612 31011KT P6SM SCT030 BKN050
     FM052000 30008KT P6SM VCSH SCT070 BKN120
     FM052300 30010KT P6SM -SHRA VCTS SCT070CB BKN120
     FM060300 31010KT P6SM SCT150 BKN200=

USA.gov is the U.S. government's official web portal to all federal, state and local government web resources and services.